createdAt,value
2022-11-14T00:00:30.096Z,7.67
2022-11-14T00:03:01.112Z,6.83
2022-11-14T00:05:28.048Z,7.50
2022-11-14T00:07:54.531Z,8.63
2022-11-14T00:10:21.365Z,7.57
2022-11-14T00:12:47.850Z,8.30
2022-11-14T00:15:14.828Z,7.97
2022-11-14T00:17:41.329Z,7.53
2022-11-14T00:20:09.581Z,8.33
2022-11-14T00:22:35.921Z,7.63
2022-11-14T00:25:02.372Z,8.17
2022-11-14T00:27:28.814Z,7.20
2022-11-14T00:29:55.209Z,8.70
2022-11-14T00:32:22.547Z,8.07
2022-11-14T00:34:49.691Z,8.20
2022-11-14T00:37:16.033Z,7.60
2022-11-14T00:39:42.504Z,7.93
2022-11-14T00:42:08.937Z,8.90
2022-11-14T00:44:35.387Z,8.73
2022-11-14T00:47:01.756Z,7.73
2022-11-14T00:49:28.136Z,7.77
2022-11-14T00:51:54.550Z,8.90
2022-11-14T00:54:20.943Z,9.17
2022-11-14T00:56:47.347Z,8.73
2022-11-14T00:59:13.765Z,8.03
2022-11-14T01:01:40.247Z,8.90
2022-11-14T01:04:06.732Z,9.20
2022-11-14T01:06:33.112Z,8.90
2022-11-14T01:08:59.527Z,8.47
2022-11-14T01:11:25.965Z,10.20
2022-11-14T01:13:52.311Z,9.33
2022-11-14T01:16:20.006Z,8.73
2022-11-14T01:18:46.630Z,8.90
2022-11-14T01:21:14.383Z,8.43
2022-11-14T01:23:41.003Z,9.73
2022-11-14T01:26:10.610Z,8.13
2022-11-14T01:28:37.974Z,10.00
2022-11-14T01:31:29.079Z,9.90
2022-11-14T01:33:55.592Z,9.70
2022-11-14T01:36:22.070Z,9.47
2022-11-14T01:38:52.721Z,9.20
2022-11-14T01:41:19.655Z,9.50
2022-11-14T01:43:46.066Z,9.17
2022-11-14T01:46:22.756Z,10.10
2022-11-14T01:48:54.656Z,9.70
2022-11-14T01:51:43.334Z,10.80
2022-11-14T01:54:15.582Z,10.07
2022-11-14T01:56:49.712Z,9.53
2022-11-14T01:59:21.914Z,9.60
2022-11-14T02:01:51.917Z,9.60
2022-11-14T02:04:23.138Z,10.13
2022-11-14T02:06:51.705Z,9.87
2022-11-14T02:09:18.300Z,10.57
2022-11-14T02:11:46.097Z,10.13
2022-11-14T02:14:12.925Z,10.23
2022-11-14T02:16:41.753Z,11.37
2022-11-14T02:19:09.031Z,11.67
2022-11-14T02:21:35.716Z,11.20
2022-11-14T02:24:02.100Z,11.60
2022-11-14T02:26:33.018Z,11.57
2022-11-14T02:29:02.073Z,11.20
2022-11-14T02:31:28.434Z,10.67
2022-11-14T02:33:54.805Z,12.20
2022-11-14T02:36:21.505Z,12.17
2022-11-14T02:38:48.213Z,13.43
2022-11-14T02:41:14.553Z,11.77
2022-11-14T02:43:40.944Z,12.80
2022-11-14T02:46:07.389Z,11.93
2022-11-14T02:48:33.888Z,12.73
2022-11-14T02:51:00.244Z,12.50
2022-11-14T02:53:26.684Z,13.77
2022-11-14T02:55:53.027Z,11.67
2022-11-14T02:58:19.380Z,12.73
2022-11-14T03:01:13.596Z,12.13
2022-11-14T03:03:32.282Z,12.27
2022-11-14T03:06:00.410Z,11.57
2022-11-14T03:08:27.288Z,12.47
2022-11-14T03:10:54.247Z,13.53
2022-11-14T03:13:20.609Z,12.23
2022-11-14T03:15:47.087Z,14.47
2022-11-14T03:18:13.765Z,12.67
2022-11-14T03:20:40.263Z,13.17
2022-11-14T03:23:06.714Z,13.47
2022-11-14T03:25:33.071Z,13.77
2022-11-14T03:27:59.613Z,15.30
2022-11-14T03:30:25.964Z,13.63
2022-11-14T03:32:52.356Z,14.40
2022-11-14T03:35:18.788Z,14.80
2022-11-14T03:37:45.243Z,16.27
2022-11-14T03:40:11.804Z,15.67
2022-11-14T03:42:38.257Z,15.17
2022-11-14T03:45:05.190Z,16.23
2022-11-14T03:47:31.693Z,15.27
2022-11-14T03:49:58.077Z,15.00
2022-11-14T03:52:26.085Z,16.87
2022-11-14T03:54:52.510Z,16.77
2022-11-14T03:57:18.946Z,16.90
2022-11-14T03:59:45.310Z,15.77
2022-11-14T04:02:12.064Z,17.33
2022-11-14T04:04:38.453Z,16.20
2022-11-14T04:07:04.976Z,17.27
2022-11-14T04:09:32.447Z,17.13
2022-11-14T04:11:58.772Z,17.47
2022-11-14T04:14:26.221Z,15.80
2022-11-14T04:16:52.616Z,17.87
2022-11-14T04:19:18.976Z,17.60
2022-11-14T04:21:45.326Z,18.23
2022-11-14T04:24:11.746Z,17.37
2022-11-14T04:26:38.123Z,18.27
2022-11-14T04:29:04.474Z,17.10
2022-11-14T04:31:30.837Z,17.57
2022-11-14T04:33:57.296Z,17.20
2022-11-14T04:36:23.673Z,17.87
2022-11-14T04:38:50.135Z,17.30
2022-11-14T04:41:16.484Z,17.43
2022-11-14T04:43:46.730Z,16.90
2022-11-14T04:46:15.989Z,17.30
2022-11-14T04:48:42.358Z,18.53
2022-11-14T04:51:09.158Z,18.17
2022-11-14T04:53:35.657Z,18.27
2022-11-14T04:56:02.256Z,17.43
2022-11-14T04:58:28.940Z,17.87
2022-11-14T05:00:57.885Z,17.67
2022-11-14T05:03:25.153Z,17.77
2022-11-14T05:05:51.816Z,19.10
2022-11-14T05:08:18.172Z,18.50
2022-11-14T05:10:45.735Z,17.10
2022-11-14T05:13:12.997Z,19.17
2022-11-14T05:15:39.432Z,17.00
2022-11-14T05:18:05.859Z,17.10
2022-11-14T05:20:32.272Z,16.70
2022-11-14T05:22:58.783Z,19.07
2022-11-14T05:25:25.292Z,18.20
2022-11-14T05:27:51.693Z,18.47
2022-11-14T05:30:18.165Z,17.77
2022-11-14T05:32:44.839Z,18.27
2022-11-14T05:35:11.468Z,17.63
2022-11-14T05:37:38.277Z,19.73
2022-11-14T05:40:05.796Z,16.93
2022-11-14T05:42:32.601Z,17.17
2022-11-14T05:44:58.983Z,16.93
2022-11-14T05:47:25.353Z,18.60
2022-11-14T05:49:51.714Z,18.77
2022-11-14T05:52:18.101Z,17.10
2022-11-14T05:54:44.453Z,16.77
2022-11-14T05:57:10.826Z,18.77
2022-11-14T05:59:37.173Z,18.03
2022-11-14T06:02:03.633Z,16.13
2022-11-14T06:04:30.123Z,17.13
2022-11-14T06:06:56.540Z,17.30
2022-11-14T06:09:23.057Z,16.67
2022-11-14T06:11:49.413Z,17.53
2022-11-14T06:14:15.884Z,16.90
2022-11-14T06:16:42.271Z,17.67
2022-11-14T06:19:08.614Z,16.77
2022-11-14T06:21:35.031Z,16.90
2022-11-14T06:24:01.567Z,16.47
2022-11-14T06:26:32.709Z,16.93
2022-11-14T06:29:00.662Z,18.03
2022-11-14T06:31:27.656Z,16.57
2022-11-14T06:33:54.500Z,17.27
2022-11-14T06:36:20.875Z,16.90
2022-11-14T06:38:47.440Z,17.33
2022-11-14T06:41:19.441Z,17.23
2022-11-14T06:43:47.950Z,16.73
2022-11-14T06:46:17.893Z,15.67
2022-11-14T06:48:46.961Z,16.33
2022-11-14T06:51:15.476Z,17.43
2022-11-14T06:53:42.617Z,16.57
2022-11-14T06:56:11.634Z,16.30
2022-11-14T06:58:40.673Z,16.90
2022-11-14T07:01:25.917Z,16.50
2022-11-14T07:03:52.296Z,17.00
2022-11-14T07:06:24.097Z,16.03
2022-11-14T07:08:52.294Z,17.13
2022-11-14T07:11:26.624Z,16.90
2022-11-14T07:13:55.195Z,16.90
2022-11-14T07:16:25.464Z,16.43
2022-11-14T07:18:52.364Z,16.57
2022-11-14T07:21:18.707Z,16.57
2022-11-14T07:23:45.093Z,17.47
2022-11-14T07:26:11.927Z,15.47
2022-11-14T07:28:41.405Z,16.63
2022-11-14T07:31:12.431Z,16.57
2022-11-14T07:33:39.349Z,16.20
2022-11-14T07:36:06.407Z,16.87
2022-11-14T07:38:34.034Z,15.43
2022-11-14T07:41:03.083Z,15.57
2022-11-14T07:43:29.776Z,16.37
2022-11-14T07:46:08.228Z,16.77
2022-11-14T07:48:34.605Z,17.40
2022-11-14T07:51:02.862Z,16.97
2022-11-14T07:53:29.794Z,16.90
2022-11-14T07:55:57.343Z,14.80
2022-11-14T07:58:23.860Z,17.70
2022-11-14T08:00:51.320Z,15.63
2022-11-14T08:03:17.740Z,17.73
2022-11-14T08:05:44.234Z,18.10
2022-11-14T08:08:10.689Z,16.73
2022-11-14T08:10:37.157Z,16.87
2022-11-14T08:13:34.060Z,16.53
2022-11-14T08:15:53.063Z,17.27
2022-11-14T08:18:19.793Z,16.53
2022-11-14T08:20:46.304Z,16.40
2022-11-14T08:23:15.403Z,16.03
2022-11-14T08:25:42.105Z,16.50
2022-11-14T08:28:08.922Z,16.93
2022-11-14T08:30:35.533Z,15.53
2022-11-14T08:33:03.686Z,15.93
2022-11-14T08:35:30.160Z,16.33
2022-11-14T08:37:56.865Z,14.97
2022-11-14T08:40:25.774Z,14.77
2022-11-14T08:42:52.288Z,15.23
2022-11-14T08:45:18.890Z,16.33
2022-11-14T08:47:51.291Z,14.80
2022-11-14T08:50:17.800Z,14.93
2022-11-14T08:52:49.590Z,14.67
2022-11-14T08:55:15.956Z,14.20
2022-11-14T08:57:46.607Z,15.00
2022-11-14T09:00:16.217Z,13.37
2022-11-14T09:02:42.588Z,13.90
2022-11-14T09:05:09.674Z,12.63
2022-11-14T09:07:36.218Z,13.00
2022-11-14T09:10:02.912Z,12.50
2022-11-14T09:12:30.494Z,14.03
2022-11-14T09:14:56.910Z,13.63
2022-11-14T09:17:23.316Z,13.37
2022-11-14T09:19:50.055Z,12.60
2022-11-14T09:22:16.596Z,12.10
2022-11-14T09:24:43.192Z,13.67
2022-11-14T09:27:09.595Z,13.43
2022-11-14T09:29:35.963Z,13.27
2022-11-14T09:32:02.346Z,13.53
2022-11-14T09:34:28.696Z,14.20
2022-11-14T09:36:55.066Z,12.33
2022-11-14T09:39:21.584Z,13.17
2022-11-14T09:42:15.830Z,12.60
2022-11-14T09:44:58.717Z,12.67
2022-11-14T09:47:38.279Z,15.57
2022-11-14T09:50:21.768Z,11.70
2022-11-14T09:53:07.705Z,13.33
2022-11-14T09:55:37.213Z,11.33
2022-11-14T09:58:05.117Z,13.63
2022-11-14T10:00:50.294Z,12.30
2022-11-14T10:03:42.692Z,11.70
2022-11-14T10:06:22.866Z,12.60
2022-11-14T10:09:11.109Z,12.50
2022-11-14T10:11:55.828Z,11.60
2022-11-14T10:14:49.428Z,12.63
2022-11-14T10:17:40.706Z,12.40
2022-11-14T10:20:31.359Z,11.73
2022-11-14T10:23:10.876Z,11.67
2022-11-14T10:26:08.277Z,11.53
2022-11-14T10:29:17.807Z,11.97
2022-11-14T10:32:01.898Z,10.60
2022-11-14T10:34:36.262Z,11.57
2022-11-14T10:37:24.934Z,10.73
2022-11-14T10:39:54.195Z,10.10
2022-11-14T10:42:34.554Z,11.27
2022-11-14T10:45:11.847Z,11.00
2022-11-14T10:47:44.699Z,10.37
2022-11-14T10:50:25.089Z,11.33
2022-11-14T10:52:57.544Z,11.10
2022-11-14T10:55:49.707Z,10.13
2022-11-14T10:58:13.600Z,10.13
2022-11-14T11:00:40.194Z,10.50
2022-11-14T11:03:07.594Z,10.33
2022-11-14T11:05:45.840Z,9.90
2022-11-14T11:08:46.822Z,9.87
2022-11-14T11:11:32.527Z,9.33
2022-11-14T11:14:01.391Z,9.77
2022-11-14T11:16:28.962Z,9.87
2022-11-14T11:19:14.645Z,10.13
2022-11-14T11:21:50.274Z,8.93
2022-11-14T11:24:37.003Z,9.53
2022-11-14T11:27:18.625Z,9.47
2022-11-14T11:29:45.018Z,9.47
2022-11-14T11:32:24.887Z,9.23
2022-11-14T11:34:51.529Z,8.40
2022-11-14T11:37:54.962Z,9.87
2022-11-14T11:40:25.698Z,9.73
2022-11-14T11:43:37.361Z,8.57
2022-11-14T11:45:53.078Z,9.53
2022-11-14T11:48:22.318Z,9.00
2022-11-14T11:50:49.941Z,8.33
2022-11-14T11:53:24.332Z,8.83
2022-11-14T11:55:55.057Z,8.50
2022-11-14T11:58:32.853Z,9.60
2022-11-14T12:00:59.286Z,8.50
2022-11-14T12:03:26.864Z,8.30
2022-11-14T12:06:15.192Z,8.50
2022-11-14T12:08:53.625Z,9.60
2022-11-14T12:11:24.020Z,9.33
2022-11-14T12:14:25.529Z,8.57
2022-11-14T12:17:07.141Z,8.27
2022-11-14T12:19:45.899Z,9.23
2022-11-14T12:22:31.195Z,8.50
2022-11-14T12:25:35.276Z,8.93
2022-11-14T12:28:26.590Z,8.60
2022-11-14T12:30:58.966Z,9.10
2022-11-14T12:33:34.666Z,8.93
2022-11-14T12:36:04.440Z,8.43
2022-11-14T12:38:42.170Z,8.57
2022-11-14T12:41:09.605Z,8.90
2022-11-14T12:43:37.763Z,9.10
2022-11-14T12:46:11.536Z,8.97
2022-11-14T12:48:45.800Z,8.57
2022-11-14T12:51:27.498Z,8.97
2022-11-14T12:53:55.344Z,9.23
2022-11-14T12:56:30.725Z,8.63
2022-11-14T12:59:26.609Z,9.30
2022-11-14T13:01:54.026Z,9.77
2022-11-14T13:04:26.518Z,8.80
2022-11-14T13:07:14.298Z,10.23
2022-11-14T13:09:53.652Z,9.23
2022-11-14T13:12:47.932Z,9.40
2022-11-14T13:15:50.599Z,9.17
2022-11-14T13:18:43.945Z,8.73
2022-11-14T13:21:45.338Z,9.00
2022-11-14T13:24:17.071Z,9.00
2022-11-14T13:26:52.482Z,9.83
2022-11-14T13:29:40.720Z,9.07
2022-11-14T13:32:11.377Z,9.77
2022-11-14T13:34:48.998Z,10.20
2022-11-14T13:37:34.181Z,9.13
2022-11-14T13:40:13.008Z,10.03
2022-11-14T13:42:45.225Z,11.03
2022-11-14T13:45:36.056Z,9.57
2022-11-14T13:48:11.478Z,9.33
2022-11-14T13:50:40.464Z,10.00
2022-11-14T13:53:20.704Z,9.27
2022-11-14T13:55:55.310Z,9.53
2022-11-14T13:58:48.931Z,9.60
2022-11-14T14:01:27.997Z,9.23
2022-11-14T14:04:13.208Z,10.00
2022-11-14T14:07:24.062Z,10.20
2022-11-14T14:10:26.997Z,9.27
2022-11-14T14:12:53.300Z,9.90
2022-11-14T14:15:19.661Z,10.60
2022-11-14T14:18:08.315Z,10.40
2022-11-14T14:21:05.923Z,10.33
2022-11-14T14:23:39.055Z,9.90
2022-11-14T14:26:23.163Z,9.87
2022-11-14T14:29:12.925Z,10.63
2022-11-14T14:31:41.496Z,10.93
2022-11-14T14:34:31.059Z,10.20
2022-11-14T14:36:58.524Z,10.60
2022-11-14T14:39:27.014Z,11.47
2022-11-14T14:41:58.395Z,9.93
2022-11-14T14:44:36.871Z,11.73
2022-11-14T14:47:34.563Z,10.80
2022-11-14T14:50:03.720Z,11.33
2022-11-14T14:52:36.864Z,10.50
2022-11-14T14:55:08.578Z,11.43
2022-11-14T14:57:35.111Z,12.23
2022-11-14T15:00:22.201Z,11.80
2022-11-14T15:02:50.089Z,10.43
2022-11-14T15:05:28.305Z,11.63
2022-11-14T15:08:00.587Z,11.80
2022-11-14T15:10:30.063Z,10.77
2022-11-14T15:12:58.146Z,12.43
2022-11-14T15:15:26.478Z,13.13
2022-11-14T15:17:54.954Z,12.70
2022-11-14T15:20:29.629Z,13.23
2022-11-14T15:23:15.351Z,14.00
2022-11-14T15:25:42.471Z,16.03
2022-11-14T15:28:21.847Z,16.33
2022-11-14T15:31:00.039Z,61.57
2022-11-14T15:33:31.982Z,22.90
2022-11-14T15:36:13.487Z,21.67
2022-11-14T15:38:44.632Z,22.40
2022-11-14T15:41:25.281Z,22.97
2022-11-14T15:43:55.172Z,23.73
2022-11-14T15:46:33.608Z,25.40
2022-11-14T15:49:01.606Z,24.80
2022-11-14T15:51:39.272Z,26.13
2022-11-14T15:54:06.823Z,26.17
2022-11-14T15:56:33.310Z,26.47
2022-11-14T15:58:59.698Z,26.53
2022-11-14T16:01:26.518Z,26.23
2022-11-14T16:03:52.968Z,26.83
2022-11-14T16:06:19.372Z,28.17
2022-11-14T16:08:46.145Z,26.90
2022-11-14T16:11:13.413Z,28.27
2022-11-14T16:13:39.755Z,28.23
2022-11-14T16:16:06.262Z,26.73
2022-11-14T16:18:32.617Z,25.73
2022-11-14T16:20:59.636Z,25.87
2022-11-14T16:23:26.002Z,25.23
2022-11-14T16:25:52.555Z,26.30
2022-11-14T16:28:18.897Z,24.50
2022-11-14T16:30:45.428Z,27.40
2022-11-14T16:33:11.840Z,25.40
2022-11-14T16:35:38.373Z,24.80
2022-11-14T16:38:04.797Z,24.60
2022-11-14T16:40:31.208Z,26.20
2022-11-14T16:42:59.445Z,25.27
2022-11-14T16:45:27.624Z,24.80
2022-11-14T16:47:54.073Z,24.47
2022-11-14T16:50:20.432Z,23.93
2022-11-14T16:52:46.955Z,24.63
2022-11-14T16:55:13.439Z,24.20
2022-11-14T16:57:40.674Z,23.53
2022-11-14T17:00:10.769Z,22.87
2022-11-14T17:02:37.236Z,22.50
2022-11-14T17:05:03.816Z,21.60
2022-11-14T17:07:32.685Z,19.53
2022-11-14T17:10:02.518Z,22.03
2022-11-14T17:12:29.015Z,21.47
2022-11-14T17:14:55.346Z,22.73
2022-11-14T17:17:22.776Z,22.27
2022-11-14T17:19:49.696Z,21.10
2022-11-14T17:22:19.737Z,21.07
2022-11-14T17:24:46.143Z,20.83
2022-11-14T17:27:15.474Z,21.23
2022-11-14T17:29:41.911Z,23.10
2022-11-14T17:32:08.254Z,20.53
2022-11-14T17:34:34.624Z,19.90
2022-11-14T17:37:00.970Z,19.27
2022-11-14T17:39:27.386Z,19.70
2022-11-14T17:41:53.765Z,19.00
2022-11-14T17:44:20.109Z,21.07
2022-11-14T17:46:47.631Z,19.37
2022-11-14T17:49:14.014Z,19.37
2022-11-14T17:51:40.417Z,19.13
2022-11-14T17:54:06.928Z,18.87
2022-11-14T17:56:33.336Z,18.80
2022-11-14T17:58:59.676Z,17.23
2022-11-14T18:01:26.391Z,18.17
2022-11-14T18:03:52.899Z,19.40
2022-11-14T18:06:20.883Z,17.30
2022-11-14T18:08:48.121Z,18.13
2022-11-14T18:11:16.951Z,17.87
2022-11-14T18:13:43.734Z,16.50
2022-11-14T18:16:14.436Z,18.47
2022-11-14T18:18:41.296Z,17.87
2022-11-14T18:21:13.663Z,17.43
2022-11-14T18:23:40.131Z,17.07
2022-11-14T18:26:14.428Z,16.80
2022-11-14T18:28:41.845Z,16.87
2022-11-14T18:31:13.465Z,17.03
2022-11-14T18:33:41.795Z,17.07
2022-11-14T18:36:11.952Z,17.53
2022-11-14T18:38:38.438Z,15.37
2022-11-14T18:41:08.955Z,16.47
2022-11-14T18:43:35.947Z,16.63
2022-11-14T18:46:10.242Z,15.73
2022-11-14T18:48:38.535Z,16.30
2022-11-14T18:51:08.189Z,16.50
2022-11-14T18:53:36.062Z,15.87
2022-11-14T18:56:13.600Z,15.17
2022-11-14T18:58:41.340Z,16.40
2022-11-14T19:01:16.584Z,15.73
2022-11-14T19:03:42.972Z,15.37
2022-11-14T19:06:12.030Z,14.27
2022-11-14T19:08:39.552Z,14.23
2022-11-14T19:11:08.871Z,14.90
2022-11-14T19:13:35.233Z,13.57
2022-11-14T19:16:05.983Z,13.50
2022-11-14T19:18:32.881Z,13.33
2022-11-14T19:21:01.346Z,13.67
2022-11-14T19:23:28.618Z,14.13
2022-11-14T19:25:59.967Z,13.47
2022-11-14T19:28:27.324Z,13.37
2022-11-14T19:30:53.752Z,14.07
2022-11-14T19:33:20.104Z,13.93
2022-11-14T19:35:46.589Z,14.13
2022-11-14T19:38:13.561Z,14.07
2022-11-14T19:40:39.920Z,14.00
2022-11-14T19:43:07.359Z,12.33
2022-11-14T19:45:35.060Z,14.30
2022-11-14T19:48:01.966Z,15.43
2022-11-14T19:50:28.538Z,14.63
2022-11-14T19:52:54.955Z,16.97
2022-11-14T19:55:21.376Z,16.17
2022-11-14T19:57:47.874Z,14.83
2022-11-14T20:00:14.961Z,16.03
2022-11-14T20:02:41.430Z,16.30
2022-11-14T20:05:08.465Z,16.43
2022-11-14T20:07:37.603Z,18.17
2022-11-14T20:10:04.965Z,16.47
2022-11-14T20:12:34.499Z,16.47
2022-11-14T20:15:02.439Z,18.33
2022-11-14T20:17:28.972Z,17.67
2022-11-14T20:19:55.406Z,16.30
2022-11-14T20:22:22.107Z,18.53
2022-11-14T20:24:48.453Z,17.60
2022-11-14T20:27:14.914Z,18.33
2022-11-14T20:29:41.296Z,19.10
2022-11-14T20:32:11.613Z,16.73
2022-11-14T20:34:40.923Z,17.70
2022-11-14T20:37:11.714Z,15.13
2022-11-14T20:39:38.538Z,18.43
2022-11-14T20:42:05.044Z,17.83
2022-11-14T20:44:31.428Z,20.37
2022-11-14T20:46:57.790Z,16.77
2022-11-14T20:49:24.232Z,18.47
2022-11-14T20:51:50.642Z,17.57
2022-11-14T20:54:17.205Z,17.77
2022-11-14T20:56:43.544Z,18.43
2022-11-14T20:59:09.973Z,19.23
2022-11-14T21:01:42.124Z,18.63
2022-11-14T21:04:10.271Z,18.83
2022-11-14T21:06:36.728Z,19.10
2022-11-14T21:09:03.218Z,19.33
2022-11-14T21:11:29.653Z,19.10
2022-11-14T21:13:56.047Z,19.70
2022-11-14T21:16:24.871Z,19.43
2022-11-14T21:18:55.364Z,20.23
2022-11-14T21:21:27.419Z,20.20
2022-11-14T21:23:54.699Z,20.33
2022-11-14T21:26:24.160Z,19.33
2022-11-14T21:28:54.501Z,18.60
2022-11-14T21:31:32.289Z,19.43
2022-11-14T21:34:01.054Z,18.03
2022-11-14T21:36:45.837Z,19.07
2022-11-14T21:39:14.823Z,19.80
2022-11-14T21:41:42.802Z,19.80
2022-11-14T21:44:11.888Z,19.50
2022-11-14T21:46:38.698Z,20.27
2022-11-14T21:49:05.085Z,17.80
2022-11-14T21:51:32.534Z,19.60
2022-11-14T21:53:58.964Z,18.33
2022-11-14T21:56:27.893Z,19.40
2022-11-14T21:59:12.631Z,18.27
2022-11-14T22:01:59.976Z,18.47
2022-11-14T22:04:26.967Z,19.27
2022-11-14T22:06:54.135Z,18.90
2022-11-14T22:09:20.882Z,18.97
2022-11-14T22:11:47.362Z,19.43
2022-11-14T22:14:13.862Z,17.93
2022-11-14T22:16:40.399Z,18.70
2022-11-14T22:19:06.866Z,18.27
2022-11-14T22:21:33.332Z,18.00
2022-11-14T22:24:00.072Z,17.77
2022-11-14T22:26:26.576Z,19.23
2022-11-14T22:28:53.089Z,19.20
2022-11-14T22:31:24.522Z,17.17
2022-11-14T22:33:54.188Z,20.03
2022-11-14T22:36:25.971Z,20.07
2022-11-14T22:38:54.135Z,18.60
2022-11-14T22:41:26.478Z,19.33
2022-11-14T22:43:57.671Z,19.57
2022-11-14T22:46:24.725Z,18.83
2022-11-14T22:48:51.329Z,18.33
2022-11-14T22:51:20.881Z,18.73
2022-11-14T22:53:52.272Z,18.37
2022-11-14T22:56:21.091Z,18.57
2022-11-14T22:58:47.525Z,20.07
2022-11-14T23:01:15.895Z,19.77
2022-11-14T23:03:42.456Z,18.80
2022-11-14T23:06:14.333Z,20.23
2022-11-14T23:08:41.020Z,20.13
2022-11-14T23:11:11.041Z,21.70
2022-11-14T23:13:42.188Z,20.40
2022-11-14T23:16:13.703Z,20.67
2022-11-14T23:18:40.615Z,19.87
2022-11-14T23:21:28.658Z,19.67
2022-11-14T23:23:59.441Z,21.93
2022-11-14T23:26:27.285Z,21.50
2022-11-14T23:28:54.593Z,20.33
2022-11-14T23:31:21.555Z,20.30
2022-11-14T23:33:50.195Z,21.07
2022-11-14T23:36:17.261Z,23.63
2022-11-14T23:38:43.706Z,22.90
2022-11-14T23:41:17.200Z,21.40
2022-11-14T23:43:43.709Z,19.40
2022-11-14T23:46:10.187Z,20.27
2022-11-14T23:48:36.572Z,22.30
2022-11-14T23:51:02.916Z,21.73
2022-11-14T23:53:30.066Z,23.57
2022-11-14T23:55:59.142Z,20.70
2022-11-14T23:58:27.023Z,19.63
